Værinformasjon

ENOV 291850Z VRB01KT 9999 -SHRA SCT006 BKN036 11/10 Q1012 RMK WIND 2175FT 16004KT


ENSD 292020Z 00000KT 9999 -RA FEW004 BKN013 11/10 Q1012 RMK WIND 1138FT 28003KT


ENAL 292350Z AUTO 21004KT 7000 +DZ FEW003/// BKN006/// OVC026/// 12/11 Q1011 REDZ


ENML 292350Z AUTO VRB01KT 9999NDV OVC008/// 11/11 Q1011